createdAt,value
2019-01-12T18:59:37.705Z,32.20
2019-01-12T19:02:05.916Z,24.93
2019-01-12T19:04:34.045Z,23.40
2019-01-12T19:07:02.219Z,26.17
2019-01-12T19:09:30.342Z,32.75
2019-01-12T19:11:58.509Z,25.75
2019-01-12T19:14:26.668Z,23.18
2019-01-12T19:16:54.800Z,23.98
2019-01-12T19:19:22.951Z,23.32
2019-01-12T19:21:51.602Z,31.30
2019-01-12T19:24:19.827Z,23.18
2019-01-12T19:26:48.042Z,27.93
2019-01-12T19:29:16.368Z,31.50
2019-01-12T19:31:44.509Z,22.00
2019-01-12T19:34:12.638Z,27.40
2019-01-12T19:36:40.765Z,28.70
2019-01-12T19:39:22.914Z,26.60
2019-01-12T19:41:51.045Z,29.92
2019-01-12T19:44:19.104Z,27.13
2019-01-12T19:46:47.280Z,27.13
2019-01-12T19:49:15.417Z,26.25
2019-01-12T19:51:43.558Z,28.27
2019-01-12T19:54:12.498Z,30.17
2019-01-12T19:56:40.723Z,25.75
2019-01-12T19:59:13.644Z,27.85
2019-01-12T20:01:38.697Z,23.47
2019-01-12T20:04:06.838Z,24.87
2019-01-12T20:06:34.973Z,27.22
2019-01-12T20:09:05.924Z,21.02
2019-01-12T20:11:34.045Z,25.02
2019-01-12T20:14:02.307Z,24.85
2019-01-12T20:16:30.415Z,32.00
2019-01-12T20:18:58.547Z,30.57
2019-01-12T20:21:26.684Z,32.83
2019-01-12T20:23:54.824Z,30.40
2019-01-12T20:26:23.170Z,25.95
2019-01-12T20:28:51.302Z,27.87
2019-01-12T20:31:21.019Z,35.00
2019-01-12T20:33:50.792Z,24.15
2019-01-12T20:36:20.582Z,28.10
2019-01-12T20:39:08.952Z,28.60
2019-01-12T20:41:41.754Z,31.23
2019-01-12T20:44:11.512Z,35.28
2019-01-12T20:46:44.639Z,34.55
2019-01-12T20:49:14.386Z,22.82
2019-01-12T20:51:47.028Z,27.55
2019-01-12T20:54:19.720Z,24.55
2019-01-12T20:57:04.685Z,25.08
2019-01-12T20:59:34.434Z,19.32
2019-01-12T21:02:20.899Z,19.73
2019-01-12T21:04:50.681Z,22.67
2019-01-12T21:07:35.652Z,19.67
2019-01-12T21:10:08.471Z,20.83
2019-01-12T21:12:41.307Z,19.17
2019-01-12T21:15:11.082Z,17.70
2019-01-12T21:17:39.266Z,16.97
2019-01-12T21:20:08.773Z,18.15
2019-01-12T21:22:36.897Z,17.32
2019-01-12T21:25:06.311Z,20.25
2019-01-12T21:27:34.611Z,18.75
2019-01-12T21:30:04.394Z,21.62
2019-01-12T21:32:32.699Z,17.80
2019-01-12T21:35:01.883Z,18.62
2019-01-12T21:37:30.058Z,16.27
2019-01-12T21:39:58.235Z,17.12
2019-01-12T21:42:26.578Z,16.37
2019-01-12T21:44:54.719Z,15.65
2019-01-12T21:47:22.960Z,19.23
2019-01-12T21:49:51.133Z,19.50
2019-01-12T21:52:19.279Z,15.93
2019-01-12T21:54:47.416Z,19.05
2019-01-12T21:57:15.591Z,15.65
2019-01-12T21:59:43.730Z,17.17
2019-01-12T22:02:11.948Z,14.38
2019-01-12T22:04:40.126Z,16.17
2019-01-12T22:07:08.462Z,14.10
2019-01-12T22:09:36.610Z,17.75
2019-01-12T22:12:04.733Z,18.15
2019-01-12T22:14:32.879Z,16.40
2019-01-12T22:17:01.034Z,13.58
2019-01-12T22:19:29.236Z,14.45
2019-01-12T22:21:57.385Z,14.45
2019-01-12T22:24:25.510Z,15.78
2019-01-12T22:26:53.651Z,12.18
2019-01-12T22:29:21.810Z,14.28
2019-01-12T22:31:49.966Z,12.35
2019-01-12T22:34:18.107Z,10.27
2019-01-12T22:36:46.231Z,11.87
2019-01-12T22:39:14.526Z,12.68
2019-01-12T22:41:42.810Z,14.13
2019-01-12T22:44:13.862Z,14.58
2019-01-12T22:46:41.968Z,10.13
2019-01-12T22:49:10.516Z,12.10
2019-01-12T22:51:38.905Z,11.13
2019-01-12T22:54:07.042Z,10.72
2019-01-12T22:56:35.196Z,11.75
2019-01-12T22:59:03.340Z,12.30
2019-01-12T23:01:33.954Z,11.65
2019-01-12T23:04:02.162Z,11.93
2019-01-12T23:06:30.408Z,19.92
2019-01-12T23:08:58.565Z,19.12
2019-01-12T23:11:26.705Z,17.92
2019-01-12T23:13:54.877Z,18.48
2019-01-12T23:16:23.013Z,19.12
2019-01-12T23:18:51.158Z,18.25
2019-01-12T23:21:19.306Z,18.62
2019-01-12T23:23:47.460Z,21.10
2019-01-12T23:26:15.615Z,24.72
2019-01-12T23:28:43.796Z,18.67
2019-01-12T23:31:11.958Z,20.57
2019-01-12T23:33:40.107Z,23.92
2019-01-12T23:36:08.348Z,20.77
2019-01-12T23:38:36.506Z,20.85
2019-01-12T23:41:04.644Z,20.35
2019-01-12T23:43:41.882Z,22.55
2019-01-12T23:46:10.842Z,20.15
2019-01-12T23:48:39.066Z,18.23
2019-01-12T23:51:07.364Z,18.75
2019-01-12T23:53:54.927Z,23.62
2019-01-12T23:56:23.066Z,19.05
2019-01-12T23:58:51.206Z,22.60
